sensor_id;sensor_type;location;lat;lon;timestamp;P1;P2;P0
84751;PMS5003;74978;37.772;-122.432;2024-02-21T00:02:19;5;5;
84751;PMS5003;74978;37.772;-122.432;2024-02-21T00:04:44;6;6;
84751;PMS5003;74978;37.772;-122.432;2024-02-21T00:07:10;5;5;
84751;PMS5003;74978;37.772;-122.432;2024-02-21T00:09:35;7;5;
84751;PMS5003;74978;37.772;-122.432;2024-02-21T00:12:01;7;7;
84751;PMS5003;74978;37.772;-122.432;2024-02-21T00:14:26;2;2;
84751;PMS5003;74978;37.772;-122.432;2024-02-21T00:16:52;1;1;
84751;PMS5003;74978;37.772;-122.432;2024-02-21T00:19:17;1;1;
84751;PMS5003;74978;37.772;-122.432;2024-02-21T00:21:43;4;3;
84751;PMS5003;74978;37.772;-122.432;2024-02-21T00:24:10;2;2;
84751;PMS5003;74978;37.772;-122.432;2024-02-21T00:26:34;5;5;
84751;PMS5003;74978;37.772;-122.432;2024-02-21T00:28:59;5;5;
84751;PMS5003;74978;37.772;-122.432;2024-02-21T00:31:25;1;1;
84751;PMS5003;74978;37.772;-122.432;2024-02-21T00:33:50;4;4;
84751;PMS5003;74978;37.772;-122.432;2024-02-21T00:36:16;5;4;
84751;PMS5003;74978;37.772;-122.432;2024-02-21T00:38:42;8;7;
84751;PMS5003;74978;37.772;-122.432;2024-02-21T00:41:07;12;8;
84751;PMS5003;74978;37.772;-122.432;2024-02-21T00:43:32;4;4;
84751;PMS5003;74978;37.772;-122.432;2024-02-21T00:45:58;11;11;
84751;PMS5003;74978;37.772;-122.432;2024-02-21T00:48:25;14;14;
84751;PMS5003;74978;37.772;-122.432;2024-02-21T00:50:49;7;6;
84751;PMS5003;74978;37.772;-122.432;2024-02-21T00:53:15;10;8;
84751;PMS5003;74978;37.772;-122.432;2024-02-21T00:55:40;2;2;
84751;PMS5003;74978;37.772;-122.432;2024-02-21T00:58:06;4;4;
84751;PMS5003;74978;37.772;-122.432;2024-02-21T01:00:31;1;1;
84751;PMS5003;74978;37.772;-122.432;2024-02-21T01:02:57;2;2;
84751;PMS5003;74978;37.772;-122.432;2024-02-21T01:05:22;2;2;
84751;PMS5003;74978;37.772;-122.432;2024-02-21T01:07:48;1;0;
84751;PMS5003;74978;37.772;-122.432;2024-02-21T01:10:13;0;0;
84751;PMS5003;74978;37.772;-122.432;2024-02-21T01:12:39;2;0;
84751;PMS5003;74978;37.772;-122.432;2024-02-21T01:15:05;2;2;
84751;PMS5003;74978;37.772;-122.432;2024-02-21T01:17:30;2;2;
84751;PMS5003;74978;37.772;-122.432;2024-02-21T01:19:55;9;9;
84751;PMS5003;74978;37.772;-122.432;2024-02-21T01:22:20;3;3;
84751;PMS5003;74978;37.772;-122.432;2024-02-21T01:24:46;2;2;
84751;PMS5003;74978;37.772;-122.432;2024-02-21T01:27:12;1;1;
84751;PMS5003;74978;37.772;-122.432;2024-02-21T01:29:37;2;2;
84751;PMS5003;74978;37.772;-122.432;2024-02-21T01:32:03;3;3;
84751;PMS5003;74978;37.772;-122.432;2024-02-21T01:34:28;2;2;
84751;PMS5003;74978;37.772;-122.432;2024-02-21T01:36:54;3;1;
84751;PMS5003;74978;37.772;-122.432;2024-02-21T01:39:20;3;3;
84751;PMS5003;74978;37.772;-122.432;2024-02-21T01:41:45;2;2;
84751;PMS5003;74978;37.772;-122.432;2024-02-21T01:44:10;6;5;
84751;PMS5003;74978;37.772;-122.432;2024-02-21T01:46:36;2;2;
84751;PMS5003;74978;37.772;-122.432;2024-02-21T01:49:02;10;7;
84751;PMS5003;74978;37.772;-122.432;2024-02-21T01:51:27;8;8;
84751;PMS5003;74978;37.772;-122.432;2024-02-21T01:53:52;5;5;
84751;PMS5003;74978;37.772;-122.432;2024-02-21T01:56:18;6;4;
84751;PMS5003;74978;37.772;-122.432;2024-02-21T01:58:43;6;6;
84751;PMS5003;74978;37.772;-122.432;2024-02-21T02:01:08;8;8;
84751;PMS5003;74978;37.772;-122.432;2024-02-21T02:03:34;9;9;
84751;PMS5003;74978;37.772;-122.432;2024-02-21T02:05:59;5;5;
84751;PMS5003;74978;37.772;-122.432;2024-02-21T02:08:25;9;7;
84751;PMS5003;74978;37.772;-122.432;2024-02-21T02:10:51;6;5;
84751;PMS5003;74978;37.772;-122.432;2024-02-21T02:13:16;11;11;
84751;PMS5003;74978;37.772;-122.432;2024-02-21T02:15:42;6;6;
84751;PMS5003;74978;37.772;-122.432;2024-02-21T02:18:07;8;8;
84751;PMS5003;74978;37.772;-122.432;2024-02-21T02:20:32;4;4;
84751;PMS5003;74978;37.772;-122.432;2024-02-21T02:22:59;5;4;
84751;PMS5003;74978;37.772;-122.432;2024-02-21T02:25:24;6;6;
84751;PMS5003;74978;37.772;-122.432;2024-02-21T02:27:48;5;5;
84751;PMS5003;74978;37.772;-122.432;2024-02-21T02:30:14;8;5;
84751;PMS5003;74978;37.772;-122.432;2024-02-21T02:32:39;12;10;
84751;PMS5003;74978;37.772;-122.432;2024-02-21T02:35:05;8;8;
84751;PMS5003;74978;37.772;-122.432;2024-02-21T02:37:30;13;10;
84751;PMS5003;74978;37.772;-122.432;2024-02-21T02:39:55;20;19;
84751;PMS5003;74978;37.772;-122.432;2024-02-21T02:42:20;4;4;
84751;PMS5003;74978;37.772;-122.432;2024-02-21T02:44:46;13;12;
84751;PMS5003;74978;37.772;-122.432;2024-02-21T02:47:12;8;6;
84751;PMS5003;74978;37.772;-122.432;2024-02-21T02:49:37;14;12;
84751;PMS5003;74978;37.772;-122.432;2024-02-21T02:52:03;11;11;
84751;PMS5003;74978;37.772;-122.432;2024-02-21T02:54:28;9;8;
84751;PMS5003;74978;37.772;-122.432;2024-02-21T02:56:54;13;11;
84751;PMS5003;74978;37.772;-122.432;2024-02-21T02:59:19;14;11;
84751;PMS5003;74978;37.772;-122.432;2024-02-21T03:01:44;7;7;
84751;PMS5003;74978;37.772;-122.432;2024-02-21T03:04:10;6;6;
84751;PMS5003;74978;37.772;-122.432;2024-02-21T03:06:35;7;6;
84751;PMS5003;74978;37.772;-122.432;2024-02-21T03:09:01;27;25;
84751;PMS5003;74978;37.772;-122.432;2024-02-21T03:11:26;14;12;
84751;PMS5003;74978;37.772;-122.432;2024-02-21T03:13:52;9;9;
84751;PMS5003;74978;37.772;-122.432;2024-02-21T03:16:17;8;7;
84751;PMS5003;74978;37.772;-122.432;2024-02-21T03:18:42;7;7;
84751;PMS5003;74978;37.772;-122.432;2024-02-21T03:21:09;10;9;
84751;PMS5003;74978;37.772;-122.432;2024-02-21T03:23:33;13;13;
84751;PMS5003;74978;37.772;-122.432;2024-02-21T03:25:58;17;17;
84751;PMS5003;74978;37.772;-122.432;2024-02-21T03:28:24;21;21;
84751;PMS5003;74978;37.772;-122.432;2024-02-21T03:30:49;11;11;
84751;PMS5003;74978;37.772;-122.432;2024-02-21T03:33:14;12;12;
84751;PMS5003;74978;37.772;-122.432;2024-02-21T03:35:40;4;4;
84751;PMS5003;74978;37.772;-122.432;2024-02-21T03:38:05;7;7;
84751;PMS5003;74978;37.772;-122.432;2024-02-21T03:40:31;8;5;
84751;PMS5003;74978;37.772;-122.432;2024-02-21T03:42:57;7;5;
84751;PMS5003;74978;37.772;-122.432;2024-02-21T03:45:22;6;6;
84751;PMS5003;74978;37.772;-122.432;2024-02-21T03:47:47;6;6;
84751;PMS5003;74978;37.772;-122.432;2024-02-21T03:50:13;17;14;
84751;PMS5003;74978;37.772;-122.432;2024-02-21T03:52:38;15;13;
84751;PMS5003;74978;37.772;-122.432;2024-02-21T03:55:09;19;17;
84751;PMS5003;74978;37.772;-122.432;2024-02-21T03:57:29;15;14;
84751;PMS5003;74978;37.772;-122.432;2024-02-21T03:59:55;14;13;
84751;PMS5003;74978;37.772;-122.432;2024-02-21T04:02:20;10;10;
84751;PMS5003;74978;37.772;-122.432;2024-02-21T04:04:52;13;10;
84751;PMS5003;74978;37.772;-122.432;2024-02-21T04:07:11;16;16;
84751;PMS5003;74978;37.772;-122.432;2024-02-21T04:09:36;12;12;
84751;PMS5003;74978;37.772;-122.432;2024-02-21T04:12:02;20;18;
84751;PMS5003;74978;37.772;-122.432;2024-02-21T04:14:27;16;16;
84751;PMS5003;74978;37.772;-122.432;2024-02-21T04:16:53;13;12;
84751;PMS5003;74978;37.772;-122.432;2024-02-21T04:19:19;32;32;
84751;PMS5003;74978;37.772;-122.432;2024-02-21T04:21:44;11;9;
84751;PMS5003;74978;37.772;-122.432;2024-02-21T04:24:10;12;12;
84751;PMS5003;74978;37.772;-122.432;2024-02-21T04:26:36;17;15;
84751;PMS5003;74978;37.772;-122.432;2024-02-21T04:29:01;11;10;
84751;PMS5003;74978;37.772;-122.432;2024-02-21T04:31:27;18;16;
84751;PMS5003;74978;37.772;-122.432;2024-02-21T04:33:53;19;18;
84751;PMS5003;74978;37.772;-122.432;2024-02-21T04:36:18;31;28;
84751;PMS5003;74978;37.772;-122.432;2024-02-21T04:38:44;22;19;
84751;PMS5003;74978;37.772;-122.432;2024-02-21T04:41:09;34;27;
84751;PMS5003;74978;37.772;-122.432;2024-02-21T04:43:34;14;14;
84751;PMS5003;74978;37.772;-122.432;2024-02-21T04:45:59;27;27;
84751;PMS5003;74978;37.772;-122.432;2024-02-21T04:48:25;15;13;
84751;PMS5003;74978;37.772;-122.432;2024-02-21T04:50:55;19;16;
84751;PMS5003;74978;37.772;-122.432;2024-02-21T04:53:16;12;12;
84751;PMS5003;74978;37.772;-122.432;2024-02-21T04:55:41;12;12;
84751;PMS5003;74978;37.772;-122.432;2024-02-21T04:58:06;15;12;
84751;PMS5003;74978;37.772;-122.432;2024-02-21T05:00:31;15;13;
84751;PMS5003;74978;37.772;-122.432;2024-02-21T05:02:56;15;14;
84751;PMS5003;74978;37.772;-122.432;2024-02-21T05:05:21;12;9;
84751;PMS5003;74978;37.772;-122.432;2024-02-21T05:07:47;21;18;
84751;PMS5003;74978;37.772;-122.432;2024-02-21T05:10:14;14;14;
84751;PMS5003;74978;37.772;-122.432;2024-02-21T05:12:38;13;13;
84751;PMS5003;74978;37.772;-122.432;2024-02-21T05:15:04;14;14;
84751;PMS5003;74978;37.772;-122.432;2024-02-21T05:17:30;13;9;
84751;PMS5003;74978;37.772;-122.432;2024-02-21T05:19:55;9;8;
84751;PMS5003;74978;37.772;-122.432;2024-02-21T05:22:20;10;9;
84751;PMS5003;74978;37.772;-122.432;2024-02-21T05:24:45;7;7;
84751;PMS5003;74978;37.772;-122.432;2024-02-21T05:27:11;13;11;
84751;PMS5003;74978;37.772;-122.432;2024-02-21T05:29:37;86;82;
84751;PMS5003;74978;37.772;-122.432;2024-02-21T05:32:02;20;19;
84751;PMS5003;74978;37.772;-122.432;2024-02-21T05:34:27;27;27;
84751;PMS5003;74978;37.772;-122.432;2024-02-21T05:36:53;6;6;
84751;PMS5003;74978;37.772;-122.432;2024-02-21T05:39:18;12;11;
84751;PMS5003;74978;37.772;-122.432;2024-02-21T05:41:44;8;8;
84751;PMS5003;74978;37.772;-122.432;2024-02-21T05:44:09;15;13;
84751;PMS5003;74978;37.772;-122.432;2024-02-21T05:46:34;9;8;
84751;PMS5003;74978;37.772;-122.432;2024-02-21T05:49:00;14;14;
84751;PMS5003;74978;37.772;-122.432;2024-02-21T05:51:26;12;12;
84751;PMS5003;74978;37.772;-122.432;2024-02-21T05:53:51;13;12;
84751;PMS5003;74978;37.772;-122.432;2024-02-21T05:56:21;11;9;
84751;PMS5003;74978;37.772;-122.432;2024-02-21T05:58:42;11;9;
84751;PMS5003;74978;37.772;-122.432;2024-02-21T06:01:13;17;16;
84751;PMS5003;74978;37.772;-122.432;2024-02-21T06:03:33;6;5;
84751;PMS5003;74978;37.772;-122.432;2024-02-21T06:05:59;9;9;
84751;PMS5003;74978;37.772;-122.432;2024-02-21T06:08:24;11;9;
84751;PMS5003;74978;37.772;-122.432;2024-02-21T06:10:49;10;9;
84751;PMS5003;74978;37.772;-122.432;2024-02-21T06:13:15;11;10;
84751;PMS5003;74978;37.772;-122.432;2024-02-21T06:15:41;16;12;
84751;PMS5003;74978;37.772;-122.432;2024-02-21T06:18:06;8;8;
84751;PMS5003;74978;37.772;-122.432;2024-02-21T06:20:31;14;11;
84751;PMS5003;74978;37.772;-122.432;2024-02-21T06:22:57;8;8;
84751;PMS5003;74978;37.772;-122.432;2024-02-21T06:25:22;14;14;
84751;PMS5003;74978;37.772;-122.432;2024-02-21T06:27:47;15;15;
84751;PMS5003;74978;37.772;-122.432;2024-02-21T06:30:13;14;14;
84751;PMS5003;74978;37.772;-122.432;2024-02-21T06:32:38;13;12;
84751;PMS5003;74978;37.772;-122.432;2024-02-21T06:35:04;11;11;
84751;PMS5003;74978;37.772;-122.432;2024-02-21T06:37:29;12;12;
84751;PMS5003;74978;37.772;-122.432;2024-02-21T06:39:55;13;11;
84751;PMS5003;74978;37.772;-122.432;2024-02-21T06:42:20;13;13;
84751;PMS5003;74978;37.772;-122.432;2024-02-21T06:44:45;14;14;
84751;PMS5003;74978;37.772;-122.432;2024-02-21T06:47:11;11;11;
84751;PMS5003;74978;37.772;-122.432;2024-02-21T06:49:36;15;15;
84751;PMS5003;74978;37.772;-122.432;2024-02-21T06:52:01;16;16;
84751;PMS5003;74978;37.772;-122.432;2024-02-21T06:54:27;16;16;
84751;PMS5003;74978;37.772;-122.432;2024-02-21T06:56:52;13;13;
84751;PMS5003;74978;37.772;-122.432;2024-02-21T06:59:18;13;12;
84751;PMS5003;74978;37.772;-122.432;2024-02-21T07:01:45;13;11;
84751;PMS5003;74978;37.772;-122.432;2024-02-21T07:04:09;6;6;
84751;PMS5003;74978;37.772;-122.432;2024-02-21T07:06:34;8;7;
84751;PMS5003;74978;37.772;-122.432;2024-02-21T07:09:00;9;9;
84751;PMS5003;74978;37.772;-122.432;2024-02-21T07:11:26;10;8;
84751;PMS5003;74978;37.772;-122.432;2024-02-21T07:13:51;12;9;
84751;PMS5003;74978;37.772;-122.432;2024-02-21T07:16:16;7;6;
84751;PMS5003;74978;37.772;-122.432;2024-02-21T07:18:42;12;12;
84751;PMS5003;74978;37.772;-122.432;2024-02-21T07:21:09;22;19;
84751;PMS5003;74978;37.772;-122.432;2024-02-21T07:23:33;11;11;
84751;PMS5003;74978;37.772;-122.432;2024-02-21T07:25:58;10;10;
84751;PMS5003;74978;37.772;-122.432;2024-02-21T07:28:24;22;22;
84751;PMS5003;74978;37.772;-122.432;2024-02-21T07:30:49;24;24;
84751;PMS5003;74978;37.772;-122.432;2024-02-21T07:33:14;27;27;
84751;PMS5003;74978;37.772;-122.432;2024-02-21T07:35:40;27;27;
84751;PMS5003;74978;37.772;-122.432;2024-02-21T07:38:06;30;30;
84751;PMS5003;74978;37.772;-122.432;2024-02-21T07:40:31;25;25;
84751;PMS5003;74978;37.772;-122.432;2024-02-21T07:42:56;27;27;
84751;PMS5003;74978;37.772;-122.432;2024-02-21T07:45:22;27;27;
84751;PMS5003;74978;37.772;-122.432;2024-02-21T07:47:48;28;24;
84751;PMS5003;74978;37.772;-122.432;2024-02-21T07:50:13;27;23;
84751;PMS5003;74978;37.772;-122.432;2024-02-21T07:52:38;28;26;
84751;PMS5003;74978;37.772;-122.432;2024-02-21T07:55:04;22;22;
84751;PMS5003;74978;37.772;-122.432;2024-02-21T07:57:29;33;31;
84751;PMS5003;74978;37.772;-122.432;2024-02-21T07:59:54;27;25;
84751;PMS5003;74978;37.772;-122.432;2024-02-21T08:02:20;25;23;
84751;PMS5003;74978;37.772;-122.432;2024-02-21T08:04:45;28;24;
84751;PMS5003;74978;37.772;-122.432;2024-02-21T08:07:10;24;23;
84751;PMS5003;74978;37.772;-122.432;2024-02-21T08:09:35;22;20;
84751;PMS5003;74978;37.772;-122.432;2024-02-21T08:12:00;24;20;
84751;PMS5003;74978;37.772;-122.432;2024-02-21T08:14:26;20;20;
84751;PMS5003;74978;37.772;-122.432;2024-02-21T08:16:51;23;23;
84751;PMS5003;74978;37.772;-122.432;2024-02-21T08:19:16;13;13;
84751;PMS5003;74978;37.772;-122.432;2024-02-21T08:21:41;17;17;
84751;PMS5003;74978;37.772;-122.432;2024-02-21T08:24:07;17;17;
84751;PMS5003;74978;37.772;-122.432;2024-02-21T08:26:33;20;19;
84751;PMS5003;74978;37.772;-122.432;2024-02-21T08:28:58;16;15;
84751;PMS5003;74978;37.772;-122.432;2024-02-21T08:31:24;22;20;
84751;PMS5003;74978;37.772;-122.432;2024-02-21T08:33:49;20;16;
84751;PMS5003;74978;37.772;-122.432;2024-02-21T08:36:17;15;14;
84751;PMS5003;74978;37.772;-122.432;2024-02-21T08:38:40;18;18;
84751;PMS5003;74978;37.772;-122.432;2024-02-21T08:41:05;25;22;
84751;PMS5003;74978;37.772;-122.432;2024-02-21T08:43:30;18;18;
84751;PMS5003;74978;37.772;-122.432;2024-02-21T08:45:55;15;14;
84751;PMS5003;74978;37.772;-122.432;2024-02-21T08:48:21;12;12;
84751;PMS5003;74978;37.772;-122.432;2024-02-21T08:50:46;16;16;
84751;PMS5003;74978;37.772;-122.432;2024-02-21T08:53:12;16;14;
84751;PMS5003;74978;37.772;-122.432;2024-02-21T08:55:38;19;16;
84751;PMS5003;74978;37.772;-122.432;2024-02-21T08:58:03;12;11;
84751;PMS5003;74978;37.772;-122.432;2024-02-21T09:00:29;12;12;
84751;PMS5003;74978;37.772;-122.432;2024-02-21T09:02:54;11;11;
84751;PMS5003;74978;37.772;-122.432;2024-02-21T09:05:20;8;8;
84751;PMS5003;74978;37.772;-122.432;2024-02-21T09:07:45;10;10;
84751;PMS5003;74978;37.772;-122.432;2024-02-21T09:10:10;8;8;
84751;PMS5003;74978;37.772;-122.432;2024-02-21T09:12:36;8;8;
84751;PMS5003;74978;37.772;-122.432;2024-02-21T09:15:01;3;3;
84751;PMS5003;74978;37.772;-122.432;2024-02-21T09:17:27;4;4;
84751;PMS5003;74978;37.772;-122.432;2024-02-21T09:19:52;4;2;
84751;PMS5003;74978;37.772;-122.432;2024-02-21T09:22:18;3;3;
84751;PMS5003;74978;37.772;-122.432;2024-02-21T09:24:43;3;2;
84751;PMS5003;74978;37.772;-122.432;2024-02-21T09:27:09;1;1;
84751;PMS5003;74978;37.772;-122.432;2024-02-21T09:29:34;0;0;
84751;PMS5003;74978;37.772;-122.432;2024-02-21T09:32:00;4;2;
84751;PMS5003;74978;37.772;-122.432;2024-02-21T09:34:26;1;1;
84751;PMS5003;74978;37.772;-122.432;2024-02-21T09:36:51;1;1;
84751;PMS5003;74978;37.772;-122.432;2024-02-21T09:39:17;3;3;
84751;PMS5003;74978;37.772;-122.432;2024-02-21T09:41:44;2;2;
84751;PMS5003;74978;37.772;-122.432;2024-02-21T09:44:08;2;2;
84751;PMS5003;74978;37.772;-122.432;2024-02-21T09:46:36;7;5;
84751;PMS5003;74978;37.772;-122.432;2024-02-21T09:49:02;10;8;
84751;PMS5003;74978;37.772;-122.432;2024-02-21T09:51:25;5;5;
84751;PMS5003;74978;37.772;-122.432;2024-02-21T09:53:50;4;4;
84751;PMS5003;74978;37.772;-122.432;2024-02-21T09:56:16;2;2;
84751;PMS5003;74978;37.772;-122.432;2024-02-21T09:58:41;4;4;
84751;PMS5003;74978;37.772;-122.432;2024-02-21T10:01:08;5;3;
84751;PMS5003;74978;37.772;-122.432;2024-02-21T10:03:32;3;2;
84751;PMS5003;74978;37.772;-122.432;2024-02-21T10:05:58;2;2;
84751;PMS5003;74978;37.772;-122.432;2024-02-21T10:08:23;5;3;
84751;PMS5003;74978;37.772;-122.432;2024-02-21T10:10:49;3;3;
84751;PMS5003;74978;37.772;-122.432;2024-02-21T10:13:24;4;4;
84751;PMS5003;74978;37.772;-122.432;2024-02-21T10:15:40;2;1;
84751;PMS5003;74978;37.772;-122.432;2024-02-21T10:18:06;2;2;
84751;PMS5003;74978;37.772;-122.432;2024-02-21T10:20:31;4;4;
84751;PMS5003;74978;37.772;-122.432;2024-02-21T10:23:00;7;4;
84751;PMS5003;74978;37.772;-122.432;2024-02-21T10:25:22;3;3;
84751;PMS5003;74978;37.772;-122.432;2024-02-21T10:27:48;3;3;
84751;PMS5003;74978;37.772;-122.432;2024-02-21T10:30:14;6;5;
84751;PMS5003;74978;37.772;-122.432;2024-02-21T10:35:04;3;3;
84751;PMS5003;74978;37.772;-122.432;2024-02-21T10:37:30;4;4;
84751;PMS5003;74978;37.772;-122.432;2024-02-21T10:39:55;7;6;
84751;PMS5003;74978;37.772;-122.432;2024-02-21T10:42:21;9;8;
84751;PMS5003;74978;37.772;-122.432;2024-02-21T10:44:46;5;5;
84751;PMS5003;74978;37.772;-122.432;2024-02-21T10:47:11;4;4;
84751;PMS5003;74978;37.772;-122.432;2024-02-21T10:49:38;7;7;
84751;PMS5003;74978;37.772;-122.432;2024-02-21T10:52:05;6;6;
84751;PMS5003;74978;37.772;-122.432;2024-02-21T10:54:33;3;3;
84751;PMS5003;74978;37.772;-122.432;2024-02-21T10:56:53;7;5;
84751;PMS5003;74978;37.772;-122.432;2024-02-21T10:59:19;6;5;
84751;PMS5003;74978;37.772;-122.432;2024-02-21T11:01:45;7;4;
84751;PMS5003;74978;37.772;-122.432;2024-02-21T11:04:10;7;5;
84751;PMS5003;74978;37.772;-122.432;2024-02-21T11:06:37;5;5;
84751;PMS5003;74978;37.772;-122.432;2024-02-21T11:09:02;6;6;
84751;PMS5003;74978;37.772;-122.432;2024-02-21T11:11:27;4;4;
84751;PMS5003;74978;37.772;-122.432;2024-02-21T11:13:53;5;5;
84751;PMS5003;74978;37.772;-122.432;2024-02-21T11:16:22;4;4;
84751;PMS5003;74978;37.772;-122.432;2024-02-21T11:18:44;6;6;
84751;PMS5003;74978;37.772;-122.432;2024-02-21T11:21:10;7;5;
84751;PMS5003;74978;37.772;-122.432;2024-02-21T11:23:35;9;8;
84751;PMS5003;74978;37.772;-122.432;2024-02-21T11:26:05;6;6;
84751;PMS5003;74978;37.772;-122.432;2024-02-21T11:28:27;7;7;
84751;PMS5003;74978;37.772;-122.432;2024-02-21T11:30:52;9;7;
84751;PMS5003;74978;37.772;-122.432;2024-02-21T11:33:24;6;6;
84751;PMS5003;74978;37.772;-122.432;2024-02-21T11:35:43;5;4;
84751;PMS5003;74978;37.772;-122.432;2024-02-21T11:38:09;10;6;
84751;PMS5003;74978;37.772;-122.432;2024-02-21T11:40:34;5;4;
84751;PMS5003;74978;37.772;-122.432;2024-02-21T11:43:00;8;6;
84751;PMS5003;74978;37.772;-122.432;2024-02-21T11:45:25;9;6;
84751;PMS5003;74978;37.772;-122.432;2024-02-21T11:47:51;5;4;
84751;PMS5003;74978;37.772;-122.432;2024-02-21T11:50:16;5;5;
84751;PMS5003;74978;37.772;-122.432;2024-02-21T11:52:42;9;9;
84751;PMS5003;74978;37.772;-122.432;2024-02-21T11:55:07;8;8;
84751;PMS5003;74978;37.772;-122.432;2024-02-21T11:57:32;7;7;
84751;PMS5003;74978;37.772;-122.432;2024-02-21T11:59:58;6;6;
84751;PMS5003;74978;37.772;-122.432;2024-02-21T12:02:23;10;7;
84751;PMS5003;74978;37.772;-122.432;2024-02-21T12:04:49;7;7;
84751;PMS5003;74978;37.772;-122.432;2024-02-21T12:07:14;6;6;
84751;PMS5003;74978;37.772;-122.432;2024-02-21T12:09:41;5;5;
84751;PMS5003;74978;37.772;-122.432;2024-02-21T12:12:06;6;6;
84751;PMS5003;74978;37.772;-122.432;2024-02-21T12:14:31;6;6;
84751;PMS5003;74978;37.772;-122.432;2024-02-21T12:16:57;5;5;
84751;PMS5003;74978;37.772;-122.432;2024-02-21T12:19:22;12;11;
84751;PMS5003;74978;37.772;-122.432;2024-02-21T12:21:48;12;10;
84751;PMS5003;74978;37.772;-122.432;2024-02-21T12:24:14;15;14;
84751;PMS5003;74978;37.772;-122.432;2024-02-21T12:26:38;15;12;
84751;PMS5003;74978;37.772;-122.432;2024-02-21T12:29:04;11;11;
84751;PMS5003;74978;37.772;-122.432;2024-02-21T12:31:29;8;8;
84751;PMS5003;74978;37.772;-122.432;2024-02-21T12:33:55;10;9;
84751;PMS5003;74978;37.772;-122.432;2024-02-21T12:36:21;12;12;
84751;PMS5003;74978;37.772;-122.432;2024-02-21T12:38:46;14;12;
84751;PMS5003;74978;37.772;-122.432;2024-02-21T12:41:12;17;11;
84751;PMS5003;74978;37.772;-122.432;2024-02-21T12:43:37;20;18;
84751;PMS5003;74978;37.772;-122.432;2024-02-21T12:46:03;15;15;
84751;PMS5003;74978;37.772;-122.432;2024-02-21T12:48:27;21;14;
84751;PMS5003;74978;37.772;-122.432;2024-02-21T12:50:53;13;13;
84751;PMS5003;74978;37.772;-122.432;2024-02-21T12:53:19;11;11;
84751;PMS5003;74978;37.772;-122.432;2024-02-21T12:55:45;13;10;
84751;PMS5003;74978;37.772;-122.432;2024-02-21T12:58:09;18;15;
84751;PMS5003;74978;37.772;-122.432;2024-02-21T13:00:35;20;17;
84751;PMS5003;74978;37.772;-122.432;2024-02-21T13:03:00;16;14;
84751;PMS5003;74978;37.772;-122.432;2024-02-21T13:05:26;15;12;
84751;PMS5003;74978;37.772;-122.432;2024-02-21T13:07:52;13;13;
84751;PMS5003;74978;37.772;-122.432;2024-02-21T13:10:17;12;12;
84751;PMS5003;74978;37.772;-122.432;2024-02-21T13:12:42;21;14;
84751;PMS5003;74978;37.772;-122.432;2024-02-21T13:15:08;20;18;
84751;PMS5003;74978;37.772;-122.432;2024-02-21T13:17:33;15;14;
84751;PMS5003;74978;37.772;-122.432;2024-02-21T13:19:59;12;10;
84751;PMS5003;74978;37.772;-122.432;2024-02-21T13:22:24;13;13;
84751;PMS5003;74978;37.772;-122.432;2024-02-21T13:24:50;14;10;
84751;PMS5003;74978;37.772;-122.432;2024-02-21T13:27:15;12;11;
84751;PMS5003;74978;37.772;-122.432;2024-02-21T13:29:41;14;11;
84751;PMS5003;74978;37.772;-122.432;2024-02-21T13:32:06;14;11;
84751;PMS5003;74978;37.772;-122.432;2024-02-21T13:34:31;15;13;
84751;PMS5003;74978;37.772;-122.432;2024-02-21T13:36:56;14;12;
84751;PMS5003;74978;37.772;-122.432;2024-02-21T13:39:23;12;12;
84751;PMS5003;74978;37.772;-122.432;2024-02-21T13:41:47;17;16;
84751;PMS5003;74978;37.772;-122.432;2024-02-21T13:44:12;14;14;
84751;PMS5003;74978;37.772;-122.432;2024-02-21T13:46:37;17;13;
84751;PMS5003;74978;37.772;-122.432;2024-02-21T13:49:03;11;11;
84751;PMS5003;74978;37.772;-122.432;2024-02-21T13:51:28;13;13;
84751;PMS5003;74978;37.772;-122.432;2024-02-21T13:53:53;15;12;
84751;PMS5003;74978;37.772;-122.432;2024-02-21T13:56:18;10;10;
84751;PMS5003;74978;37.772;-122.432;2024-02-21T13:58:44;11;10;
84751;PMS5003;74978;37.772;-122.432;2024-02-21T14:01:10;14;11;
84751;PMS5003;74978;37.772;-122.432;2024-02-21T14:03:34;13;13;
84751;PMS5003;74978;37.772;-122.432;2024-02-21T14:06:00;15;9;
84751;PMS5003;74978;37.772;-122.432;2024-02-21T14:08:25;15;13;
84751;PMS5003;74978;37.772;-122.432;2024-02-21T14:10:51;14;14;
84751;PMS5003;74978;37.772;-122.432;2024-02-21T14:13:16;12;12;
84751;PMS5003;74978;37.772;-122.432;2024-02-21T14:15:43;7;7;
84751;PMS5003;74978;37.772;-122.432;2024-02-21T14:18:07;14;14;
84751;PMS5003;74978;37.772;-122.432;2024-02-21T14:20:32;11;11;
84751;PMS5003;74978;37.772;-122.432;2024-02-21T14:22:58;7;7;
84751;PMS5003;74978;37.772;-122.432;2024-02-21T14:25:23;12;12;
84751;PMS5003;74978;37.772;-122.432;2024-02-21T14:27:48;12;10;
84751;PMS5003;74978;37.772;-122.432;2024-02-21T14:30:14;16;12;
84751;PMS5003;74978;37.772;-122.432;2024-02-21T14:32:40;11;10;
84751;PMS5003;74978;37.772;-122.432;2024-02-21T14:35:05;7;7;
84751;PMS5003;74978;37.772;-122.432;2024-02-21T14:37:30;15;11;
84751;PMS5003;74978;37.772;-122.432;2024-02-21T14:39:55;7;7;
84751;PMS5003;74978;37.772;-122.432;2024-02-21T14:42:21;8;8;
84751;PMS5003;74978;37.772;-122.432;2024-02-21T14:44:47;9;9;
84751;PMS5003;74978;37.772;-122.432;2024-02-21T14:47:12;9;9;
84751;PMS5003;74978;37.772;-122.432;2024-02-21T14:49:38;11;9;
84751;PMS5003;74978;37.772;-122.432;2024-02-21T14:52:03;11;11;
84751;PMS5003;74978;37.772;-122.432;2024-02-21T14:54:29;18;10;
84751;PMS5003;74978;37.772;-122.432;2024-02-21T14:56:54;9;8;
84751;PMS5003;74978;37.772;-122.432;2024-02-21T14:59:20;13;13;
84751;PMS5003;74978;37.772;-122.432;2024-02-21T15:01:45;8;7;
84751;PMS5003;74978;37.772;-122.432;2024-02-21T15:04:10;9;8;
84751;PMS5003;74978;37.772;-122.432;2024-02-21T15:06:35;14;11;
84751;PMS5003;74978;37.772;-122.432;2024-02-21T15:09:01;10;9;
84751;PMS5003;74978;37.772;-122.432;2024-02-21T15:11:27;8;7;
84751;PMS5003;74978;37.772;-122.432;2024-02-21T15:13:52;11;11;
84751;PMS5003;74978;37.772;-122.432;2024-02-21T15:16:18;8;7;
84751;PMS5003;74978;37.772;-122.432;2024-02-21T15:18:43;7;7;
84751;PMS5003;74978;37.772;-122.432;2024-02-21T15:21:08;11;11;
84751;PMS5003;74978;37.772;-122.432;2024-02-21T15:23:34;8;8;
84751;PMS5003;74978;37.772;-122.432;2024-02-21T15:26:00;15;14;
84751;PMS5003;74978;37.772;-122.432;2024-02-21T15:28:25;9;9;
84751;PMS5003;74978;37.772;-122.432;2024-02-21T15:30:50;10;10;
84751;PMS5003;74978;37.772;-122.432;2024-02-21T15:33:16;8;8;
84751;PMS5003;74978;37.772;-122.432;2024-02-21T15:35:42;9;7;
84751;PMS5003;74978;37.772;-122.432;2024-02-21T15:38:07;10;10;